createdAt,value
2022-09-03T00:00:37.766Z,98295.53
2022-09-03T00:03:18.683Z,98305.03
2022-09-03T00:05:51.205Z,98307.13
2022-09-03T00:08:34.710Z,98310.56
2022-09-03T00:11:22.651Z,98304.53
2022-09-03T00:13:58.122Z,98301.78
2022-09-03T00:16:30.946Z,98294.44
2022-09-03T00:19:01.652Z,98289.63
2022-09-03T00:22:00.945Z,98286.44
2022-09-03T00:24:30.915Z,98298.81
2022-09-03T00:27:03.329Z,98288.88
2022-09-03T00:29:37.064Z,98293.06
2022-09-03T00:32:11.151Z,98292.56
2022-09-03T00:34:48.198Z,98286.84
2022-09-03T00:37:15.671Z,98285.84
2022-09-03T00:39:42.911Z,98286.84
2022-09-03T00:42:31.625Z,98292.78
2022-09-03T00:45:34.991Z,98292.94
2022-09-03T00:48:13.903Z,98294.84
2022-09-03T00:51:05.350Z,98294.22
2022-09-03T00:54:18.249Z,98285.25
2022-09-03T00:57:22.433Z,98287.50
2022-09-03T01:00:11.127Z,98289.69
2022-09-03T01:02:51.632Z,98292.94
2022-09-03T01:05:22.493Z,98290.88
2022-09-03T01:08:14.920Z,98294.91
2022-09-03T01:11:04.072Z,98287.09
2022-09-03T01:13:39.585Z,98289.28
2022-09-03T01:16:40.754Z,98290.09
2022-09-03T01:19:13.501Z,98290.38
2022-09-03T01:22:20.348Z,98291.78
2022-09-03T01:25:24.042Z,98294.16
2022-09-03T01:28:08.197Z,98284.69
2022-09-03T01:30:40.162Z,98282.25
2022-09-03T01:33:34.067Z,98277.69
2022-09-03T01:36:21.111Z,98285.81
2022-09-03T01:38:53.433Z,98283.66
2022-09-03T01:41:38.952Z,98291.47
2022-09-03T01:44:23.936Z,98292.78
2022-09-03T01:47:04.828Z,98296.81
2022-09-03T01:49:49.148Z,98300.59
2022-09-03T01:52:22.450Z,98302.22
2022-09-03T01:55:19.663Z,98297.28
2022-09-03T01:57:55.078Z,98292.41
2022-09-03T02:00:22.609Z,98298.31
2022-09-03T02:02:53.613Z,98300.16
2022-09-03T02:05:23.647Z,98303.22
2022-09-03T02:07:56.798Z,98300.59
2022-09-03T02:10:29.930Z,98307.00
2022-09-03T02:13:12.611Z,98303.22
2022-09-03T02:15:43.813Z,98303.75
2022-09-03T02:18:16.395Z,98303.19
2022-09-03T02:20:45.769Z,98309.66
2022-09-03T02:23:12.444Z,98311.84
2022-09-03T02:25:42.700Z,98313.44
2022-09-03T02:28:17.204Z,98310.63
2022-09-03T02:30:44.552Z,98304.03
2022-09-03T02:33:11.504Z,98307.25
2022-09-03T02:35:39.856Z,98313.25
2022-09-03T02:38:18.075Z,98310.56
2022-09-03T02:40:45.551Z,98297.88
2022-09-03T02:43:18.806Z,98303.78
2022-09-03T02:45:51.140Z,98299.19
2022-09-03T02:48:23.104Z,98297.00
2022-09-03T02:50:49.967Z,98303.75
2022-09-03T02:53:16.815Z,98296.69
2022-09-03T02:55:44.361Z,98298.28
2022-09-03T02:58:10.734Z,98299.66
2022-09-03T03:00:37.947Z,98307.44
2022-09-03T03:03:06.241Z,98306.06
2022-09-03T03:05:57.995Z,98311.16
2022-09-03T03:08:27.751Z,98305.41
2022-09-03T03:10:57.172Z,98309.66
2022-09-03T03:13:24.851Z,98308.84
2022-09-03T03:15:51.667Z,98315.56
2022-09-03T03:18:18.356Z,98299.81
2022-09-03T03:20:45.005Z,98313.84
2022-09-03T03:23:11.502Z,98299.44
2022-09-03T03:25:39.732Z,98306.44
2022-09-03T03:28:07.401Z,98305.81
2022-09-03T03:30:37.188Z,98306.56
2022-09-03T03:33:03.746Z,98315.16
2022-09-03T03:35:30.522Z,98313.38
2022-09-03T03:38:00.318Z,98313.66
2022-09-03T03:40:27.222Z,98321.09
2022-09-03T03:42:54.805Z,98320.94
2022-09-03T03:45:21.215Z,98320.13
2022-09-03T03:47:47.766Z,98321.56
2022-09-03T03:50:14.287Z,98320.13
2022-09-03T03:52:40.637Z,98317.81
2022-09-03T03:55:07.455Z,98306.22
2022-09-03T03:57:34.066Z,98323.06
2022-09-03T04:00:00.617Z,98325.34
2022-09-03T04:02:27.274Z,98328.63
2022-09-03T04:04:53.695Z,98336.69
2022-09-03T04:07:20.074Z,98332.53
2022-09-03T04:09:47.113Z,98333.66
2022-09-03T04:12:13.497Z,98330.56
2022-09-03T04:14:39.980Z,98330.81
2022-09-03T04:17:06.689Z,98328.38
2022-09-03T04:19:33.068Z,98322.72
2022-09-03T04:21:59.765Z,98328.22
2022-09-03T04:24:26.289Z,98332.53
2022-09-03T04:26:52.729Z,98327.63
2022-09-03T04:29:19.182Z,98315.88
2022-09-03T04:31:45.577Z,98318.09
2022-09-03T04:34:12.247Z,98320.88
2022-09-03T04:36:38.669Z,98323.56
2022-09-03T04:39:07.543Z,98314.91
2022-09-03T04:41:34.037Z,98318.66
2022-09-03T04:44:00.778Z,98322.41
2022-09-03T04:46:29.939Z,98328.47
2022-09-03T04:48:56.569Z,98327.97
2022-09-03T04:51:27.107Z,98334.97
2022-09-03T04:53:57.174Z,98334.97
2022-09-03T04:56:28.266Z,98336.06
2022-09-03T04:58:57.022Z,98341.03
2022-09-03T05:01:27.519Z,98332.28
2022-09-03T05:03:54.620Z,98337.53
2022-09-03T05:06:22.646Z,98336.63
2022-09-03T05:08:50.302Z,98330.56
2022-09-03T05:11:17.679Z,98332.44
2022-09-03T05:13:47.196Z,98331.94
2022-09-03T05:16:13.747Z,98332.88
2022-09-03T05:18:40.169Z,98325.28
2022-09-03T05:21:09.059Z,98331.88
2022-09-03T05:23:41.930Z,98327.94
2022-09-03T05:26:17.953Z,98323.78
2022-09-03T05:28:45.511Z,98324.69
2022-09-03T05:31:14.459Z,98327.22
2022-09-03T05:33:47.045Z,98330.22
2022-09-03T05:36:16.028Z,98332.53
2022-09-03T05:38:43.774Z,98328.38
2022-09-03T05:41:12.677Z,98328.13
2022-09-03T05:43:40.130Z,98336.78
2022-09-03T05:46:10.756Z,98342.34
2022-09-03T05:48:38.792Z,98342.25
2022-09-03T05:51:11.195Z,98337.91
2022-09-03T05:53:40.040Z,98348.22
2022-09-03T05:56:09.657Z,98352.03
2022-09-03T05:58:38.717Z,98351.53
2022-09-03T06:01:15.862Z,98353.84
2022-09-03T06:03:44.304Z,98353.56
2022-09-03T06:06:12.006Z,98358.97
2022-09-03T06:08:38.516Z,98358.72
2022-09-03T06:11:05.843Z,98352.00
2022-09-03T06:13:33.588Z,98355.28
2022-09-03T06:16:02.167Z,98351.72
2022-09-03T06:18:32.300Z,98352.31
2022-09-03T06:21:01.756Z,98357.09
2022-09-03T06:23:29.567Z,98361.75
2022-09-03T06:26:13.466Z,98354.44
2022-09-03T06:28:43.410Z,98361.16
2022-09-03T06:31:12.666Z,98363.94
2022-09-03T06:33:40.702Z,98360.78
2022-09-03T06:36:09.935Z,98359.66
2022-09-03T06:38:38.089Z,98362.44
2022-09-03T06:41:28.819Z,98359.97
2022-09-03T06:44:12.223Z,98370.72
2022-09-03T06:46:41.015Z,98355.75
2022-09-03T06:49:07.505Z,98357.69
2022-09-03T06:51:34.280Z,98359.38
2022-09-03T06:54:04.311Z,98354.94
2022-09-03T06:56:38.887Z,98359.09
2022-09-03T06:59:11.930Z,98357.19
2022-09-03T07:01:39.167Z,98349.22
2022-09-03T07:04:05.842Z,98356.91
2022-09-03T07:06:38.078Z,98358.25
2022-09-03T07:09:05.892Z,98355.31
2022-09-03T07:11:32.703Z,98349.72
2022-09-03T07:14:00.577Z,98352.22
2022-09-03T07:16:30.065Z,98360.97
2022-09-03T07:18:57.087Z,98359.81
2022-09-03T07:21:26.803Z,98357.41
2022-09-03T07:23:54.671Z,98354.56
2022-09-03T07:26:31.086Z,98359.81
2022-09-03T07:28:58.833Z,98360.78
2022-09-03T07:31:33.738Z,98358.66
2022-09-03T07:34:06.085Z,98360.78
2022-09-03T14:04:44.175Z,98488.78
2022-09-03T14:07:17.702Z,98477.78
2022-09-03T14:10:06.269Z,98472.03
2022-09-03T14:12:49.195Z,98473.59
2022-09-03T14:15:15.565Z,98466.84
2022-09-03T14:17:52.740Z,98461.19
2022-09-03T14:20:27.747Z,98452.19
2022-09-03T14:23:19.017Z,98460.06
2022-09-03T14:25:55.763Z,98466.28
2022-09-03T14:28:35.926Z,98461.69
2022-09-03T14:31:47.754Z,98461.44
2022-09-03T14:34:42.600Z,98462.53
2022-09-03T14:50:57.227Z,98438.09
2022-09-03T14:54:01.764Z,98434.84
2022-09-03T14:56:50.132Z,98432.69
2022-09-03T14:59:43.189Z,98421.28
2022-09-03T15:02:21.814Z,98417.47
2022-09-03T15:04:56.029Z,98419.66
2022-09-03T15:07:42.585Z,98429.41
2022-09-03T15:10:51.149Z,98430.22
2022-09-03T15:13:26.101Z,98428.88
2022-09-03T15:16:01.745Z,98425.34
2022-09-03T15:18:43.557Z,98422.59
2022-09-03T15:21:34.928Z,98424.00
2022-09-03T15:24:36.481Z,98419.34
2022-09-03T15:27:18.852Z,98425.09
2022-09-03T15:30:03.679Z,98417.75
2022-09-03T15:32:55.245Z,98423.94
2022-09-03T15:35:43.515Z,98423.44
2022-09-03T15:38:19.887Z,98424.41
2022-09-03T15:40:46.391Z,98428.56
2022-09-03T15:43:19.771Z,98420.16
2022-09-03T15:45:49.365Z,98418.28
2022-09-03T15:48:53.399Z,98428.88
2022-09-03T15:51:26.691Z,98423.69
2022-09-03T15:54:15.287Z,98421.25
2022-09-03T15:57:05.577Z,98419.09
2022-09-03T15:59:42.334Z,98421.81
2022-09-03T16:02:19.901Z,98410.94
2022-09-03T16:08:23.363Z,98420.47
2022-09-03T16:11:16.689Z,98419.91
2022-09-03T16:14:07.898Z,98423.97
2022-09-03T16:16:56.352Z,98432.63
2022-09-03T16:19:40.426Z,98436.97
2022-09-03T16:22:14.608Z,98444.56
2022-09-03T16:24:49.769Z,98445.94
2022-09-03T16:27:36.580Z,98435.91
2022-09-03T16:30:12.208Z,98447.28
2022-09-03T16:32:47.404Z,98443.50
2022-09-03T16:35:27.178Z,98446.75
2022-09-03T16:38:27.547Z,98442.41
2022-09-03T16:41:27.832Z,98440.25
2022-09-03T16:44:20.156Z,98435.34
2022-09-03T16:47:07.981Z,98436.44
2022-09-03T16:49:54.849Z,98432.63
2022-09-03T16:52:40.011Z,98442.09
2022-09-03T16:55:35.043Z,98445.06
2022-09-03T16:58:21.970Z,98441.03
2022-09-03T17:01:08.870Z,98441.53
2022-09-03T17:03:47.699Z,98437.50
2022-09-03T17:06:49.445Z,98441.84
2022-09-03T17:09:30.870Z,98440.75
2022-09-03T17:12:14.360Z,98446.41
2022-09-03T17:14:58.418Z,98440.44
2022-09-03T17:17:58.785Z,98440.41
2022-09-03T17:20:34.222Z,98443.91
2022-09-03T17:23:06.915Z,98444.38
2022-09-03T17:25:37.885Z,98454.13
2022-09-03T17:28:15.559Z,98447.41
2022-09-03T17:30:48.477Z,98440.09
2022-09-03T17:33:27.036Z,98452.16
2022-09-03T17:36:05.713Z,98459.16
2022-09-03T17:38:47.136Z,98457.97
2022-09-03T17:41:19.280Z,98467.41
2022-09-03T17:44:18.499Z,98476.31
2022-09-03T17:46:54.316Z,98481.19
2022-09-03T17:49:26.398Z,98484.00
2022-09-03T17:52:05.459Z,98489.84
2022-09-03T17:54:46.422Z,98481.66
2022-09-03T17:57:24.353Z,98490.00
2022-09-03T18:00:01.781Z,98496.22
2022-09-03T18:02:30.910Z,98499.94
2022-09-03T18:05:04.918Z,98508.50
2022-09-03T18:07:47.362Z,98512.50
2022-09-03T18:10:27.691Z,98517.28
2022-09-03T18:13:34.912Z,98520.47
2022-09-03T18:16:14.158Z,98518.63
2022-09-03T18:18:47.425Z,98533.75
2022-09-03T18:21:27.778Z,98532.59
2022-09-03T18:24:30.473Z,98533.69
2022-09-03T18:27:04.162Z,98539.78
2022-09-03T18:29:44.358Z,98550.03
2022-09-03T18:32:10.994Z,98549.78
2022-09-03T18:34:38.519Z,98553.81
2022-09-03T18:37:05.523Z,98557.19
2022-09-03T18:39:32.209Z,98555.41
2022-09-03T18:42:37.733Z,98551.84
2022-09-03T18:45:23.334Z,98558.56
2022-09-03T18:48:14.076Z,98562.81
2022-09-03T18:51:02.875Z,98562.88
2022-09-03T18:53:55.990Z,98567.38
2022-09-03T18:56:34.603Z,98559.16
2022-09-03T18:59:18.589Z,98557.66
2022-09-03T19:01:45.371Z,98568.72
2022-09-03T19:04:30.948Z,98559.72
2022-09-03T19:07:12.603Z,98563.50
2022-09-03T19:10:02.642Z,98568.00
2022-09-03T19:12:38.096Z,98568.25
2022-09-03T19:15:16.774Z,98574.88
2022-09-03T19:18:09.098Z,98580.91
2022-09-03T19:20:39.334Z,98583.50
2022-09-03T19:23:06.028Z,98584.25
2022-09-03T19:25:32.721Z,98587.91
2022-09-03T19:28:04.842Z,98589.69
2022-09-03T19:30:52.736Z,98587.25
2022-09-03T19:33:39.314Z,98594.50
2022-09-03T19:36:11.088Z,98591.59
2022-09-03T19:38:55.730Z,98608.16
2022-09-03T19:41:32.464Z,98610.63
2022-09-03T19:44:19.197Z,98610.28
2022-09-03T19:46:51.280Z,98611.75
2022-09-03T19:49:51.539Z,98611.97
2022-09-03T19:52:24.072Z,98611.41
2022-09-03T19:54:54.814Z,98615.94
2022-09-03T19:57:22.289Z,98614.59
2022-09-03T19:59:50.598Z,98615.28
2022-09-03T20:02:17.081Z,98619.88
2022-09-03T20:04:51.883Z,98622.56
2022-09-03T20:07:20.888Z,98622.22
2022-09-03T20:09:48.107Z,98622.38
2022-09-03T20:12:18.158Z,98628.72
2022-09-03T20:14:44.963Z,98620.28
2022-09-03T20:17:45.788Z,98628.38
2022-09-03T20:20:15.773Z,98632.25
2022-09-03T20:22:53.442Z,98630.28
2022-09-03T20:25:37.357Z,98632.88
2022-09-03T20:28:30.870Z,98638.13
2022-09-03T20:31:43.865Z,98638.13
2022-09-03T20:34:38.854Z,98640.34
2022-09-03T20:37:18.784Z,98646.56
2022-09-03T20:39:58.854Z,98646.56
2022-09-03T20:43:10.745Z,98648.91
2022-09-03T20:46:07.945Z,98646.44
2022-09-03T20:48:40.829Z,98651.59
2022-09-03T20:51:14.812Z,98657.56
2022-09-03T20:54:04.696Z,98658.97
2022-09-03T20:57:00.235Z,98656.63
2022-09-03T20:59:57.038Z,98664.56
2022-09-03T21:02:48.070Z,98660.81
2022-09-03T21:05:28.269Z,98655.69
2022-09-03T21:08:08.141Z,98655.91
2022-09-03T21:10:47.296Z,98661.06
2022-09-03T21:13:28.161Z,98661.88
2022-09-03T21:16:05.713Z,98664.78
2022-09-03T21:18:50.116Z,98653.69
2022-09-03T21:21:30.885Z,98664.38
2022-09-03T21:24:21.953Z,98664.59
2022-09-03T21:26:53.434Z,98666.16
2022-09-03T21:29:25.576Z,98671.41
2022-09-03T21:32:02.456Z,98664.88
2022-09-03T21:34:50.796Z,98670.50
2022-09-03T21:37:18.625Z,98672.31
2022-09-03T21:39:54.857Z,98671.88
2022-09-03T21:42:31.077Z,98671.31
2022-09-03T21:45:07.208Z,98666.75
2022-09-03T21:47:40.650Z,98673.75
2022-09-03T21:50:19.127Z,98672.47
2022-09-03T21:52:54.670Z,98672.59
2022-09-03T21:55:33.238Z,98673.75
2022-09-03T21:58:02.319Z,98685.22
2022-09-03T22:00:29.433Z,98682.19
2022-09-03T22:02:55.956Z,98676.31
2022-09-03T22:05:23.421Z,98675.16
2022-09-03T22:08:04.766Z,98671.72
2022-09-03T22:10:49.849Z,98678.66
2022-09-03T22:13:35.383Z,98685.22
2022-09-03T22:16:17.728Z,98688.84
2022-09-03T22:18:44.334Z,98699.72
2022-09-03T22:21:26.148Z,98706.50
2022-09-03T22:24:01.771Z,98714.25
2022-09-03T22:26:58.923Z,98724.34
2022-09-03T22:29:42.954Z,98718.69
2022-09-03T22:32:25.236Z,98724.56
2022-09-03T22:35:36.648Z,98725.38
2022-09-03T22:38:21.492Z,98737.69
2022-09-03T22:41:29.959Z,98728.56
2022-09-03T22:44:36.999Z,98739.81
2022-09-03T22:47:18.658Z,98730.91
2022-09-03T22:50:18.161Z,98726.56
2022-09-03T22:52:51.303Z,98719.53
2022-09-03T22:55:21.660Z,98714.97
2022-09-03T22:57:55.685Z,98714.50
2022-09-03T23:00:22.368Z,98716.41
2022-09-03T23:02:59.609Z,98730.56
2022-09-03T23:05:43.881Z,98724.00
2022-09-03T23:08:33.576Z,98731.41
2022-09-03T23:10:59.918Z,98738.31
2022-09-03T23:13:29.205Z,98732.56
2022-09-03T23:16:21.488Z,98732.66
2022-09-03T23:18:48.605Z,98739.56
2022-09-03T23:21:31.923Z,98743.28
2022-09-03T23:24:05.677Z,98741.66
2022-09-03T23:26:41.587Z,98748.22
2022-09-03T23:29:16.958Z,98742.25
2022-09-03T23:31:43.415Z,98750.09
2022-09-03T23:34:12.018Z,98743.28
2022-09-03T23:37:32.586Z,98741.19
2022-09-03T23:40:27.665Z,98740.38
2022-09-03T23:43:22.750Z,98745.63
2022-09-03T23:46:01.995Z,98742.00
2022-09-03T23:48:47.585Z,98753.25
2022-09-03T23:51:28.403Z,98753.91
2022-09-03T23:54:16.954Z,98754.97
2022-09-03T23:57:04.017Z,98752.28
